createdAt,value
2023-02-13T00:01:25.658Z,12.63
2023-02-13T00:03:53.165Z,17.38
2023-02-13T00:06:20.671Z,12.63
2023-02-13T00:08:48.243Z,15.20
2023-02-13T00:11:15.824Z,13.95
2023-02-13T00:13:43.307Z,17.67
2023-02-13T00:16:11.082Z,14.70
2023-02-13T00:18:40.372Z,18.38
2023-02-13T00:21:15.764Z,14.00
2023-02-13T00:23:43.817Z,12.48
2023-02-13T00:26:15.434Z,11.30
2023-02-13T00:28:46.193Z,13.68
2023-02-13T00:31:22.506Z,14.50
2023-02-13T00:33:50.965Z,15.52
2023-02-13T00:36:23.294Z,12.32
2023-02-13T00:38:53.782Z,10.57
2023-02-13T00:41:22.689Z,16.58
2023-02-13T00:43:52.178Z,10.43
2023-02-13T00:46:19.648Z,13.27
2023-02-13T00:48:47.351Z,10.40
2023-02-13T00:51:15.055Z,12.50
2023-02-13T00:53:42.563Z,12.63
2023-02-13T00:56:11.254Z,13.73
2023-02-13T00:58:39.030Z,9.75
2023-02-13T01:01:06.538Z,22.23
2023-02-13T01:03:35.242Z,11.95
2023-02-13T01:06:02.900Z,14.02
2023-02-13T01:08:30.487Z,11.23
2023-02-13T01:10:58.433Z,11.85
2023-02-13T01:13:26.175Z,10.13
2023-02-13T01:15:54.869Z,11.52
2023-02-13T01:18:22.686Z,13.07
2023-02-13T01:21:06.206Z,11.85
2023-02-13T01:23:36.759Z,9.98
2023-02-13T01:26:06.387Z,13.02
2023-02-13T01:28:34.850Z,9.88
2023-02-13T01:31:03.132Z,12.85
2023-02-13T01:33:30.837Z,12.32
2023-02-13T01:35:58.536Z,12.77
2023-02-13T01:38:26.257Z,12.80
2023-02-13T01:40:55.108Z,9.10
2023-02-13T01:43:25.105Z,15.30
2023-02-13T01:45:56.526Z,12.10
2023-02-13T01:48:26.458Z,13.05
2023-02-13T01:51:23.073Z,12.45
2023-02-13T01:53:57.917Z,12.13
2023-02-13T01:56:57.761Z,10.07
2023-02-13T01:59:37.558Z,11.05
2023-02-13T02:02:05.536Z,15.23
2023-02-13T02:04:34.663Z,11.80
2023-02-13T02:07:20.218Z,9.35
2023-02-13T02:09:51.190Z,9.52
2023-02-13T02:12:27.537Z,11.60
2023-02-13T02:14:58.137Z,11.02
2023-02-13T02:17:26.668Z,11.73
2023-02-13T02:20:31.586Z,10.40
2023-02-13T02:23:40.131Z,13.10
2023-02-13T02:26:50.616Z,13.98
2023-02-13T02:29:23.861Z,11.68
2023-02-13T02:32:24.117Z,16.20
2023-02-13T02:35:03.849Z,13.77
2023-02-13T02:37:52.995Z,19.83
2023-02-13T02:40:31.271Z,14.48
2023-02-13T02:43:01.509Z,16.77
2023-02-13T02:45:35.442Z,14.32
2023-02-13T02:48:58.151Z,13.30
2023-02-13T02:51:39.457Z,19.23
2023-02-13T02:54:41.359Z,17.55
2023-02-13T02:57:15.408Z,19.77
2023-02-13T03:00:07.812Z,17.90
2023-02-13T03:02:54.484Z,19.35
2023-02-13T03:05:49.785Z,19.25
2023-02-13T03:08:38.244Z,19.15
2023-02-13T03:11:24.981Z,18.58
2023-02-13T03:13:54.610Z,21.35
2023-02-13T03:16:43.694Z,21.52
2023-02-13T03:19:43.809Z,17.63
2023-02-13T03:22:43.210Z,20.40
2023-02-13T03:25:10.625Z,22.60
2023-02-13T03:28:14.532Z,20.98
2023-02-13T03:30:57.344Z,25.33
2023-02-13T03:33:52.017Z,27.85
2023-02-13T03:36:59.362Z,24.00
2023-02-13T03:40:02.232Z,23.83
2023-02-13T03:42:38.552Z,23.88
2023-02-13T03:45:48.726Z,27.92
2023-02-13T03:48:39.295Z,24.70
2023-02-13T03:51:08.630Z,20.38
2023-02-13T03:53:38.385Z,30.90
2023-02-13T03:56:27.112Z,29.05
2023-02-13T03:59:16.590Z,19.02
2023-02-13T04:01:55.766Z,20.45
2023-02-13T04:04:39.677Z,22.27
2023-02-13T04:07:12.243Z,28.65
2023-02-13T04:09:42.780Z,20.40
2023-02-13T04:12:18.891Z,25.15
2023-02-13T04:14:52.175Z,24.00
2023-02-13T04:17:27.265Z,22.65
2023-02-13T04:19:55.168Z,20.88
2023-02-13T04:22:22.626Z,25.30
2023-02-13T04:24:50.069Z,29.40
2023-02-13T04:27:18.281Z,27.52
2023-02-13T04:29:45.691Z,18.42
2023-02-13T04:32:14.940Z,15.57
2023-02-13T04:34:42.296Z,23.15
2023-02-13T04:37:09.733Z,20.00
2023-02-13T04:39:37.121Z,28.05
2023-02-13T04:42:04.586Z,23.00
2023-02-13T04:44:31.975Z,20.80
2023-02-13T04:46:59.395Z,26.50
2023-02-13T04:49:26.806Z,20.80
2023-02-13T04:51:54.192Z,21.30
2023-02-13T04:54:21.759Z,22.85
2023-02-13T04:56:49.168Z,19.90
2023-02-13T04:59:16.564Z,23.90
2023-02-13T05:01:43.978Z,28.02
2023-02-13T05:04:16.169Z,26.00
2023-02-13T05:06:43.690Z,21.35
2023-02-13T05:09:11.689Z,25.27
2023-02-13T05:11:42.840Z,22.73
2023-02-13T05:14:11.238Z,20.77
2023-02-13T05:16:38.599Z,22.92
2023-02-13T05:19:06.094Z,21.33
2023-02-13T05:21:52.273Z,26.13
2023-02-13T05:24:20.705Z,23.83
2023-02-13T05:26:48.178Z,24.33
2023-02-13T05:29:22.640Z,23.05
2023-02-13T05:31:55.268Z,26.48
2023-02-13T05:34:24.788Z,25.55
2023-02-13T05:36:52.239Z,30.52
2023-02-13T05:39:19.686Z,24.58
2023-02-13T05:41:48.294Z,24.65
2023-02-13T05:44:16.504Z,27.30
2023-02-13T05:46:45.011Z,25.88
2023-02-13T05:49:15.083Z,27.20
2023-02-13T05:51:43.200Z,28.20
2023-02-13T05:54:13.724Z,35.53
2023-02-13T05:56:41.469Z,38.03
2023-02-13T05:59:09.026Z,26.88
2023-02-13T06:01:37.885Z,27.65
2023-02-13T06:04:06.967Z,29.75
2023-02-13T06:06:36.871Z,30.80
2023-02-13T06:09:04.864Z,21.90
2023-02-13T06:11:32.255Z,28.20
2023-02-13T06:13:59.602Z,22.55
2023-02-13T06:16:27.147Z,25.92
2023-02-13T06:18:55.010Z,24.67
2023-02-13T06:21:22.690Z,28.55
2023-02-13T06:23:50.162Z,28.13
2023-02-13T06:26:17.619Z,30.98
2023-02-13T06:28:46.038Z,30.42
2023-02-13T06:31:13.523Z,34.28
2023-02-13T06:33:40.982Z,37.25
2023-02-13T06:36:08.411Z,41.35
2023-02-13T06:38:35.856Z,33.67
2023-02-13T06:41:03.419Z,40.90
2023-02-13T06:43:31.167Z,42.15
2023-02-13T06:45:58.893Z,36.47
2023-02-13T06:48:26.347Z,45.78
2023-02-13T06:50:53.870Z,50.90
2023-02-13T06:53:24.833Z,39.67
2023-02-13T06:55:53.677Z,47.53
2023-02-13T06:58:23.355Z,51.42
2023-02-13T07:00:52.085Z,44.70
2023-02-13T07:03:19.658Z,41.50
2023-02-13T07:05:47.276Z,39.35
2023-02-13T07:08:14.774Z,50.83
2023-02-13T07:10:42.363Z,45.88
2023-02-13T07:13:11.020Z,51.60
2023-02-13T07:15:38.601Z,37.30
2023-02-13T07:18:06.601Z,41.42
2023-02-13T07:20:34.111Z,44.55
2023-02-13T07:23:03.503Z,39.47
2023-02-13T07:25:32.262Z,52.58
2023-02-13T07:28:04.590Z,40.05
2023-02-13T07:30:33.461Z,48.90
2023-02-13T07:33:05.205Z,45.85
2023-02-13T07:35:33.043Z,50.85
2023-02-13T07:38:00.840Z,47.03
2023-02-13T07:40:28.654Z,45.38
2023-02-13T07:42:56.601Z,40.85
2023-02-13T07:45:23.978Z,51.97
2023-02-13T07:47:51.380Z,43.08
2023-02-13T07:50:18.860Z,36.55
2023-02-13T07:52:56.336Z,39.13
2023-02-13T07:55:24.194Z,44.78
2023-02-13T07:57:52.053Z,43.13
2023-02-13T08:00:20.065Z,36.25
2023-02-13T08:02:47.636Z,43.10
2023-02-13T08:05:15.259Z,39.58
2023-02-13T08:07:42.665Z,36.80
2023-02-13T08:10:32.501Z,42.10
2023-02-13T08:13:00.368Z,37.88
2023-02-13T08:15:27.865Z,36.28
2023-02-13T08:17:55.274Z,37.13
2023-02-13T08:20:24.041Z,36.40
2023-02-13T08:22:52.030Z,34.90
2023-02-13T08:25:19.800Z,38.30
2023-02-13T08:27:47.485Z,37.63
2023-02-13T08:30:15.425Z,36.80
2023-02-13T08:32:53.979Z,37.60
2023-02-13T08:35:22.964Z,36.20
2023-02-13T08:37:50.383Z,38.38
2023-02-13T08:40:18.047Z,34.20
2023-02-13T08:42:45.418Z,35.95
2023-02-13T08:45:12.985Z,35.90
2023-02-13T08:47:40.402Z,33.67
2023-02-13T08:50:08.495Z,43.15
2023-02-13T08:52:35.940Z,35.97
2023-02-13T08:55:03.875Z,37.22
2023-02-13T08:57:31.617Z,38.00
2023-02-13T08:59:59.042Z,39.85
2023-02-13T09:02:26.527Z,42.28
2023-02-13T09:04:54.066Z,49.53
2023-02-13T09:07:21.476Z,50.85
2023-02-13T09:09:48.903Z,43.15
2023-02-13T09:12:16.328Z,43.70
2023-02-13T09:14:43.731Z,44.70
2023-02-13T09:17:12.145Z,35.95
2023-02-13T09:19:39.560Z,33.58
2023-02-13T09:22:06.973Z,32.13
2023-02-13T09:24:34.360Z,27.30
2023-02-13T09:27:01.756Z,27.00
2023-02-13T09:29:31.756Z,25.48
2023-02-13T09:31:59.369Z,25.92
2023-02-13T09:34:27.295Z,26.75
2023-02-13T09:36:54.949Z,29.90
2023-02-13T09:39:22.347Z,27.00
2023-02-13T09:41:52.221Z,28.52
2023-02-13T09:44:34.853Z,27.35
2023-02-13T09:47:17.055Z,29.25
2023-02-13T09:50:25.677Z,34.05
2023-02-13T09:52:55.042Z,27.95
2023-02-13T09:56:11.352Z,31.10
2023-02-13T09:58:48.365Z,30.10
2023-02-13T10:01:34.014Z,27.63
2023-02-13T10:04:20.030Z,27.85
2023-02-13T10:06:58.188Z,29.45
2023-02-13T10:09:42.415Z,29.92
2023-02-13T10:12:15.994Z,27.70
2023-02-13T10:14:43.539Z,28.27
2023-02-13T10:17:45.212Z,22.52
2023-02-13T10:20:34.684Z,25.52
2023-02-13T10:23:40.652Z,25.55
2023-02-13T10:26:42.454Z,29.60
2023-02-13T10:29:43.152Z,22.25
2023-02-13T10:32:17.601Z,28.05
2023-02-13T10:34:46.555Z,26.42
2023-02-13T10:37:19.617Z,26.80
2023-02-13T10:39:50.061Z,26.00
2023-02-13T10:42:25.251Z,27.65
2023-02-13T10:44:57.879Z,23.90
2023-02-13T10:48:00.923Z,25.15
2023-02-13T10:50:39.482Z,27.08
2023-02-13T10:53:34.602Z,28.35
2023-02-13T10:56:05.007Z,26.13
2023-02-13T10:59:01.793Z,31.17
2023-02-13T11:01:52.295Z,32.78
2023-02-13T11:04:20.211Z,22.55
2023-02-13T11:07:00.469Z,26.50
2023-02-13T11:09:30.952Z,28.60
2023-02-13T11:11:58.366Z,26.00
2023-02-13T11:14:27.385Z,27.02
2023-02-13T11:16:54.836Z,27.80
2023-02-13T11:19:35.746Z,27.63
2023-02-13T11:22:13.613Z,33.28
2023-02-13T11:24:43.201Z,30.25
2023-02-13T11:27:13.959Z,27.40
2023-02-13T11:29:52.699Z,31.27
2023-02-13T11:32:26.668Z,33.08
2023-02-13T11:34:55.682Z,30.55
2023-02-13T11:37:27.109Z,27.75
2023-02-13T11:39:57.821Z,35.10
2023-02-13T11:42:32.364Z,34.92
2023-02-13T11:45:20.470Z,33.97
2023-02-13T11:47:48.188Z,32.85
2023-02-13T11:50:25.994Z,28.27
2023-02-13T11:53:04.704Z,30.70
2023-02-13T11:55:39.370Z,35.83
2023-02-13T11:58:33.451Z,31.48
2023-02-13T12:01:19.752Z,30.73
2023-02-13T12:04:16.182Z,33.80
2023-02-13T12:07:01.775Z,32.50
2023-02-13T12:09:31.318Z,35.28
2023-02-13T12:12:02.673Z,30.60
2023-02-13T12:14:37.244Z,21.07
2023-02-13T12:17:09.629Z,33.85
2023-02-13T12:19:43.032Z,33.13
2023-02-13T12:22:44.267Z,33.13
2023-02-13T12:25:53.726Z,30.65
2023-02-13T12:28:51.510Z,31.55
2023-02-13T12:31:36.233Z,23.58
2023-02-13T12:34:15.902Z,37.17
2023-02-13T12:36:58.318Z,27.27
2023-02-13T12:39:35.842Z,26.85
2023-02-13T12:42:18.005Z,31.38
2023-02-13T12:45:19.995Z,34.33
2023-02-13T12:48:00.906Z,33.17
2023-02-13T12:50:57.096Z,32.42
2023-02-13T12:53:32.058Z,30.13
2023-02-13T12:56:40.888Z,38.97
2023-02-13T12:59:22.715Z,35.53
2023-02-13T13:02:09.295Z,58.95
2023-02-13T13:05:14.375Z,34.00
2023-02-13T13:08:00.506Z,32.30
2023-02-13T13:10:27.859Z,30.40
2023-02-13T13:13:26.286Z,32.50
2023-02-13T13:16:17.079Z,35.70
2023-02-13T13:19:12.165Z,33.22
2023-02-13T13:22:07.057Z,31.80
2023-02-13T13:25:02.001Z,29.83
2023-02-13T13:27:46.198Z,32.70
2023-02-13T13:30:33.781Z,34.88
2023-02-13T13:33:12.589Z,26.45
2023-02-13T13:36:00.630Z,31.42
2023-02-13T13:38:52.821Z,31.00
2023-02-13T13:41:38.947Z,31.95
2023-02-13T13:44:16.914Z,27.98
2023-02-13T13:46:50.824Z,30.90
2023-02-13T13:49:23.998Z,29.35
2023-02-13T13:51:51.366Z,30.50
2023-02-13T13:54:22.346Z,33.00
2023-02-13T13:57:04.514Z,29.90
2023-02-13T13:59:34.719Z,27.98
2023-02-13T14:02:17.608Z,31.33
2023-02-13T14:05:23.533Z,29.80
2023-02-13T14:08:00.102Z,31.95
2023-02-13T14:10:30.391Z,30.80
2023-02-13T14:12:57.900Z,33.58
2023-02-13T14:15:49.917Z,32.75
2023-02-13T14:18:20.438Z,38.38
2023-02-13T14:20:50.897Z,36.55
2023-02-13T14:23:41.468Z,26.25
2023-02-13T14:26:17.650Z,32.90
2023-02-13T14:28:50.558Z,28.17
2023-02-13T14:31:27.520Z,33.35
2023-02-13T14:33:59.102Z,38.80
2023-02-13T14:36:35.270Z,46.80
2023-02-13T14:39:28.662Z,43.30
2023-02-13T14:42:00.531Z,36.03
2023-02-13T14:44:39.620Z,29.33
2023-02-13T14:47:36.179Z,61.10
2023-02-13T14:50:07.101Z,87.03
2023-02-13T14:52:45.769Z,62.65
2023-02-13T14:55:17.079Z,34.83
2023-02-13T14:57:52.237Z,43.10
2023-02-13T15:00:32.153Z,50.80
2023-02-13T15:03:05.954Z,43.65
2023-02-13T15:05:35.600Z,40.45
2023-02-13T15:08:14.262Z,37.03
2023-02-13T15:10:48.195Z,37.72
2023-02-13T15:13:20.862Z,35.95
2023-02-13T15:16:09.585Z,32.17
2023-02-13T15:18:45.597Z,36.33
2023-02-13T15:21:16.390Z,32.60
2023-02-13T15:23:49.022Z,30.40
2023-02-13T15:26:26.330Z,43.55
2023-02-13T15:29:27.811Z,46.45
2023-02-13T15:31:57.465Z,39.92
2023-02-13T15:34:29.145Z,43.95
2023-02-13T15:36:56.892Z,39.85
2023-02-13T15:39:31.961Z,42.72
2023-02-13T15:42:01.450Z,32.83
2023-02-13T15:44:32.965Z,56.45
2023-02-13T15:47:07.555Z,42.17
2023-02-13T15:49:39.776Z,35.58
2023-02-13T15:52:14.912Z,87.72
2023-02-13T15:54:53.319Z,66.57
2023-02-13T15:57:21.846Z,59.22
2023-02-13T15:59:50.319Z,55.45
2023-02-13T16:02:36.307Z,50.40
2023-02-13T16:05:04.063Z,34.08
2023-02-13T16:07:45.659Z,32.70
2023-02-13T16:10:23.804Z,35.20
2023-02-13T16:12:51.356Z,38.17
2023-02-13T16:15:21.601Z,35.42
2023-02-13T16:17:49.563Z,53.20
2023-02-13T16:20:19.185Z,69.82
2023-02-13T16:23:01.253Z,77.63
2023-02-13T16:25:36.429Z,67.90
2023-02-13T16:28:18.399Z,61.72
2023-02-13T16:30:52.509Z,65.10
2023-02-13T16:33:28.054Z,52.78
2023-02-13T16:36:00.630Z,77.25
2023-02-13T16:38:30.870Z,64.45
2023-02-13T16:41:03.109Z,58.17
2023-02-13T16:43:41.033Z,54.10
2023-02-13T16:46:15.683Z,50.53
2023-02-13T16:48:45.678Z,44.33
2023-02-13T16:51:13.443Z,50.03
2023-02-13T16:53:41.169Z,44.42
2023-02-13T16:56:11.118Z,48.13
2023-02-13T16:58:38.559Z,59.80
2023-02-13T17:01:06.189Z,52.55
2023-02-13T17:03:33.622Z,54.15
2023-02-13T17:06:02.797Z,52.85
2023-02-13T17:08:32.329Z,55.60
2023-02-13T17:11:07.977Z,66.72
2023-02-13T17:13:35.402Z,72.70
2023-02-13T17:16:02.859Z,74.50
2023-02-13T17:18:30.322Z,75.82
2023-02-13T17:20:58.044Z,76.13
2023-02-13T17:23:26.048Z,74.15
2023-02-13T17:25:54.171Z,72.47
2023-02-13T17:28:29.123Z,65.57
2023-02-13T17:30:58.476Z,64.72
2023-02-13T17:33:28.592Z,65.32
2023-02-13T17:35:56.200Z,65.20
2023-02-13T17:38:23.825Z,69.95
2023-02-13T17:40:51.916Z,77.03
2023-02-13T17:43:20.681Z,68.93
2023-02-13T17:45:49.757Z,69.97
2023-02-13T17:48:17.878Z,68.80
2023-02-13T17:50:45.264Z,68.18
2023-02-13T17:53:24.802Z,63.17
2023-02-13T17:55:52.613Z,61.00
2023-02-13T17:58:20.044Z,73.75
2023-02-13T18:00:47.648Z,64.80
2023-02-13T18:03:15.143Z,68.15
2023-02-13T18:05:42.569Z,62.53
2023-02-13T18:08:10.078Z,65.32
2023-02-13T18:10:39.564Z,69.07
2023-02-13T18:13:07.278Z,63.40
2023-02-13T18:15:38.786Z,79.10
2023-02-13T18:18:06.245Z,91.32
2023-02-13T18:20:34.184Z,89.53
2023-02-13T18:23:01.842Z,102.00
2023-02-13T18:25:29.338Z,93.57
2023-02-13T18:27:56.735Z,95.15
2023-02-13T18:30:24.322Z,94.22
2023-02-13T18:32:53.817Z,87.10
2023-02-13T18:35:22.412Z,88.70
2023-02-13T18:37:50.430Z,86.95
2023-02-13T18:40:17.983Z,77.88
2023-02-13T18:42:45.507Z,85.15
2023-02-13T18:45:12.979Z,95.78
2023-02-13T18:47:40.379Z,81.15
2023-02-13T18:50:09.090Z,76.72
2023-02-13T18:52:36.519Z,78.50
2023-02-13T18:55:06.989Z,68.85
2023-02-13T18:57:34.683Z,73.55
2023-02-13T19:00:05.066Z,60.97
2023-02-13T19:02:33.430Z,66.15
2023-02-13T19:05:01.464Z,66.57
2023-02-13T19:07:29.095Z,71.88
2023-02-13T19:09:56.474Z,62.75
2023-02-13T19:12:23.916Z,59.80
2023-02-13T19:14:51.392Z,55.40
2023-02-13T19:17:18.823Z,64.10
2023-02-13T19:19:48.838Z,81.32
2023-02-13T19:22:16.600Z,80.60
2023-02-13T19:24:44.193Z,66.25
2023-02-13T19:27:11.633Z,62.00
2023-02-13T19:29:39.217Z,64.43
2023-02-13T19:32:06.712Z,67.68
2023-02-13T19:34:34.243Z,68.55
2023-02-13T19:37:01.941Z,60.03
2023-02-13T19:39:29.358Z,57.47
2023-02-13T19:41:56.897Z,53.95
2023-02-13T19:44:24.384Z,60.60
2023-02-13T19:46:51.830Z,73.20
2023-02-13T19:49:22.265Z,59.00
2023-02-13T19:51:50.345Z,55.47
2023-02-13T19:54:17.744Z,65.53
2023-02-13T19:56:45.248Z,55.20
2023-02-13T19:59:13.545Z,56.22
2023-02-13T20:01:42.907Z,59.72
2023-02-13T20:04:12.054Z,66.38
2023-02-13T20:06:39.877Z,58.85
2023-02-13T20:09:10.372Z,61.50
2023-02-13T20:11:42.050Z,59.72
2023-02-13T20:14:14.762Z,68.25
2023-02-13T20:16:46.487Z,70.18
2023-02-13T20:19:14.187Z,60.03
2023-02-13T20:21:42.455Z,77.03
2023-02-13T20:24:11.596Z,68.00
2023-02-13T20:26:39.806Z,69.60
2023-02-13T20:29:08.084Z,75.40
2023-02-13T20:31:36.065Z,83.30
2023-02-13T20:34:06.157Z,69.47
2023-02-13T20:36:34.079Z,65.65
2023-02-13T20:39:04.194Z,69.03
2023-02-13T20:41:33.583Z,72.65
2023-02-13T20:44:05.136Z,124.72
2023-02-13T20:46:35.555Z,77.50
2023-02-13T20:49:03.047Z,74.07
2023-02-13T20:51:30.952Z,77.05
2023-02-13T20:53:59.946Z,72.95
2023-02-13T20:56:28.433Z,83.05
2023-02-13T20:58:58.247Z,72.32
2023-02-13T21:01:31.221Z,76.70
2023-02-13T21:03:58.840Z,71.32
2023-02-13T21:06:28.868Z,67.80
2023-02-13T21:08:56.608Z,69.00
2023-02-13T21:11:24.300Z,72.07
2023-02-13T21:13:51.887Z,77.53
2023-02-13T21:16:22.568Z,78.55
2023-02-13T21:18:52.445Z,89.07
2023-02-13T21:21:21.683Z,69.00
2023-02-13T21:23:52.377Z,74.80
2023-02-13T21:26:19.988Z,77.07
2023-02-13T21:28:48.697Z,66.82
2023-02-13T21:31:19.001Z,75.55
2023-02-13T21:33:46.791Z,75.97
2023-02-13T21:36:14.365Z,73.30
2023-02-13T21:38:41.996Z,75.10
2023-02-13T21:41:12.297Z,83.00
2023-02-13T21:43:42.178Z,70.90
2023-02-13T21:46:11.820Z,71.97
2023-02-13T21:48:40.705Z,76.47
2023-02-13T21:51:12.978Z,73.80
2023-02-13T21:53:40.919Z,71.50
2023-02-13T21:56:11.934Z,74.45
2023-02-13T21:58:40.998Z,70.25
2023-02-13T22:01:26.157Z,65.43
2023-02-13T22:03:59.794Z,70.40
2023-02-13T22:06:30.375Z,81.15
2023-02-13T22:08:59.662Z,84.45
2023-02-13T22:11:27.663Z,80.13
2023-02-13T22:14:02.439Z,92.18
2023-02-13T22:16:31.497Z,87.68
2023-02-13T22:18:59.527Z,80.03
2023-02-13T22:21:29.894Z,77.43
2023-02-13T22:23:57.871Z,83.55
2023-02-13T22:26:28.069Z,78.72
2023-02-13T22:28:59.022Z,69.80
2023-02-13T22:31:26.539Z,78.53
2023-02-13T22:34:03.357Z,74.20
2023-02-13T22:36:39.054Z,69.50
2023-02-13T22:39:08.349Z,70.75
2023-02-13T22:41:35.874Z,74.63
2023-02-13T22:44:03.568Z,72.20
2023-02-13T22:46:33.162Z,75.70
2023-02-13T22:49:01.006Z,81.07
2023-02-13T22:51:34.607Z,80.53
2023-02-13T22:54:02.658Z,72.25
2023-02-13T22:56:31.012Z,74.03
2023-02-13T22:58:59.392Z,68.18
2023-02-13T23:01:28.938Z,71.60
2023-02-13T23:03:57.283Z,68.20
2023-02-13T23:06:25.284Z,67.97
2023-02-13T23:08:53.744Z,63.63
2023-02-13T23:11:42.975Z,67.03
2023-02-13T23:14:11.409Z,67.63
2023-02-13T23:16:58.321Z,76.20
2023-02-13T23:19:27.456Z,67.05
2023-02-13T23:21:55.230Z,56.80
2023-02-13T23:24:22.728Z,62.53
2023-02-13T23:26:50.108Z,58.65
2023-02-13T23:29:17.572Z,63.92
2023-02-13T23:31:45.156Z,61.40
2023-02-13T23:34:12.757Z,61.40
2023-02-13T23:36:40.168Z,55.67
2023-02-13T23:39:07.648Z,63.45
2023-02-13T23:41:35.060Z,58.45
2023-02-13T23:44:02.545Z,62.13
2023-02-13T23:46:30.012Z,57.70
2023-02-13T23:48:57.763Z,58.00
2023-02-13T23:51:25.721Z,50.70
2023-02-13T23:53:56.060Z,54.13
2023-02-13T23:56:24.983Z,51.47
2023-02-13T23:58:53.247Z,49.42
